IT-0133 weather

CdV Ass.Sp. Parvolo
Pramaggiore, Veneto, Italy

Public forecast

Using degrees Celsius for public forecast. Weather courtesy of forecast.io.

Closest aviation weather report (METAR) to CdV Ass.Sp. Parvolo

Closest report is Aviano Air Base, 14.5 nm (26.9 km) NNW. Retrieved 2020/04/02 10:55 UTC (58 minutes ago):

LIPA 021055Z 20006KT CAVOK 11/M00 Q1015 RMK SKC VIS MIN 9999 WIND THR05 /////KT WIND THR23 /////KT A2998 BLU

Closest aviation forecast (TAF) to CdV Ass.Sp. Parvolo

Forecast is more than 12 hours old.

Closest forecast is Aviano Air Base, 14.5 nm (26.9 km) NNW. Retrieved 2015/11/03 12:24 UTC (4 years ago):

TAF TAF LIPA 031100Z 0312/0324 VRB03KT CAVOK